sensor_id;sensor_type;location;lat;lon;timestamp;temperature;humidity
37285;DHT22;23172;53.550;9.964;2022-09-17T00:00:01;16.90;91.40
37285;DHT22;23172;53.550;9.964;2022-09-17T00:05:04;16.90;91.40
37285;DHT22;23172;53.550;9.964;2022-09-17T00:10:07;16.90;91.40
37285;DHT22;23172;53.550;9.964;2022-09-17T00:15:09;16.80;91.70
37285;DHT22;23172;53.550;9.964;2022-09-17T00:20:11;16.80;91.80
37285;DHT22;23172;53.550;9.964;2022-09-17T00:25:15;16.80;91.90
37285;DHT22;23172;53.550;9.964;2022-09-17T00:30:17;16.80;92.00
37285;DHT22;23172;53.550;9.964;2022-09-17T00:35:19;16.70;92.00
37285;DHT22;23172;53.550;9.964;2022-09-17T00:40:22;16.70;91.80
37285;DHT22;23172;53.550;9.964;2022-09-17T00:45:24;16.80;91.70
37285;DHT22;23172;53.550;9.964;2022-09-17T00:50:28;16.80;91.40
37285;DHT22;23172;53.550;9.964;2022-09-17T00:55:36;16.80;91.10
37285;DHT22;23172;53.550;9.964;2022-09-17T01:00:39;16.70;91.10
37285;DHT22;23172;53.550;9.964;2022-09-17T01:05:44;16.60;91.20
37285;DHT22;23172;53.550;9.964;2022-09-17T01:10:59;16.50;91.00
37285;DHT22;23172;53.550;9.964;2022-09-17T01:16:09;16.40;91.30
37285;DHT22;23172;53.550;9.964;2022-09-17T01:21:45;16.40;91.50
37285;DHT22;23172;53.550;9.964;2022-09-17T01:27:09;16.30;91.50
37285;DHT22;23172;53.550;9.964;2022-09-17T01:32:18;16.30;91.40
37285;DHT22;23172;53.550;9.964;2022-09-17T01:37:29;16.30;91.20
37285;DHT22;23172;53.550;9.964;2022-09-17T01:42:36;16.30;91.10
37285;DHT22;23172;53.550;9.964;2022-09-17T01:47:43;16.30;91.10
37285;DHT22;23172;53.550;9.964;2022-09-17T01:52:49;16.30;91.10
37285;DHT22;23172;53.550;9.964;2022-09-17T01:57:55;16.30;90.90
37285;DHT22;23172;53.550;9.964;2022-09-17T02:03:04;16.30;90.60
37285;DHT22;23172;53.550;9.964;2022-09-17T02:08:09;16.30;90.60
37285;DHT22;23172;53.550;9.964;2022-09-17T02:13:14;16.30;90.70
37285;DHT22;23172;53.550;9.964;2022-09-17T02:18:24;16.30;91.10
37285;DHT22;23172;53.550;9.964;2022-09-17T02:23:32;16.20;91.50
37285;DHT22;23172;53.550;9.964;2022-09-17T02:28:39;16.20;91.70
37285;DHT22;23172;53.550;9.964;2022-09-17T02:33:48;16.20;91.80
37285;DHT22;23172;53.550;9.964;2022-09-17T02:38:57;16.20;91.80
37285;DHT22;23172;53.550;9.964;2022-09-17T02:44:02;16.20;92.30
37285;DHT22;23172;53.550;9.964;2022-09-17T02:49:28;16.20;91.70
37285;DHT22;23172;53.550;9.964;2022-09-17T02:54:40;16.10;91.90
37285;DHT22;23172;53.550;9.964;2022-09-17T02:59:50;16.10;92.00
37285;DHT22;23172;53.550;9.964;2022-09-17T03:04:55;16.10;92.00
37285;DHT22;23172;53.550;9.964;2022-09-17T03:09:57;16.20;91.90
37285;DHT22;23172;53.550;9.964;2022-09-17T03:14:59;16.20;91.90
37285;DHT22;23172;53.550;9.964;2022-09-17T03:20:02;16.20;91.80
37285;DHT22;23172;53.550;9.964;2022-09-17T03:25:05;16.10;91.80
37285;DHT22;23172;53.550;9.964;2022-09-17T03:30:08;16.10;92.00
37285;DHT22;23172;53.550;9.964;2022-09-17T03:35:11;16.10;92.10
37285;DHT22;23172;53.550;9.964;2022-09-17T03:40:13;16.10;92.10
37285;DHT22;23172;53.550;9.964;2022-09-17T03:45:15;16.10;92.10
37285;DHT22;23172;53.550;9.964;2022-09-17T03:50:18;16.10;92.10
37285;DHT22;23172;53.550;9.964;2022-09-17T03:55:20;16.00;92.00
37285;DHT22;23172;53.550;9.964;2022-09-17T04:00:22;16.00;92.00
37285;DHT22;23172;53.550;9.964;2022-09-17T04:05:26;16.00;91.80
37285;DHT22;23172;53.550;9.964;2022-09-17T04:10:27;15.90;91.50
37285;DHT22;23172;53.550;9.964;2022-09-17T04:15:29;15.90;91.20
37285;DHT22;23172;53.550;9.964;2022-09-17T04:20:33;16.00;91.10
37285;DHT22;23172;53.550;9.964;2022-09-17T04:25:35;16.00;90.90
37285;DHT22;23172;53.550;9.964;2022-09-17T04:30:37;15.80;91.10
37285;DHT22;23172;53.550;9.964;2022-09-17T04:35:40;15.80;91.30
37285;DHT22;23172;53.550;9.964;2022-09-17T04:40:43;15.80;91.40
37285;DHT22;23172;53.550;9.964;2022-09-17T04:45:46;15.80;91.40
37285;DHT22;23172;53.550;9.964;2022-09-17T04:50:50;15.80;91.50
37285;DHT22;23172;53.550;9.964;2022-09-17T04:55:51;15.80;91.50
37285;DHT22;23172;53.550;9.964;2022-09-17T05:00:53;15.80;91.50
37285;DHT22;23172;53.550;9.964;2022-09-17T05:05:56;15.80;91.40
37285;DHT22;23172;53.550;9.964;2022-09-17T05:10:58;15.70;91.30
37285;DHT22;23172;53.550;9.964;2022-09-17T05:16:00;15.80;91.20
37285;DHT22;23172;53.550;9.964;2022-09-17T05:21:03;15.80;91.30
37285;DHT22;23172;53.550;9.964;2022-09-17T05:26:05;15.70;91.40
37285;DHT22;23172;53.550;9.964;2022-09-17T05:31:07;15.70;91.70
37285;DHT22;23172;53.550;9.964;2022-09-17T05:36:11;15.60;92.00
37285;DHT22;23172;53.550;9.964;2022-09-17T05:41:12;15.50;92.30
37285;DHT22;23172;53.550;9.964;2022-09-17T05:46:15;15.50;92.40
37285;DHT22;23172;53.550;9.964;2022-09-17T05:51:18;15.60;92.40
37285;DHT22;23172;53.550;9.964;2022-09-17T05:56:19;15.70;92.30
37285;DHT22;23172;53.550;9.964;2022-09-17T06:01:21;15.80;92.00
37285;DHT22;23172;53.550;9.964;2022-09-17T06:06:27;15.80;91.80
37285;DHT22;23172;53.550;9.964;2022-09-17T06:11:30;15.90;91.10
37285;DHT22;23172;53.550;9.964;2022-09-17T06:16:32;15.80;90.90
37285;DHT22;23172;53.550;9.964;2022-09-17T06:21:35;15.90;90.60
37285;DHT22;23172;53.550;9.964;2022-09-17T06:26:37;15.90;90.80
37285;DHT22;23172;53.550;9.964;2022-09-17T06:31:39;15.90;90.50
37285;DHT22;23172;53.550;9.964;2022-09-17T06:36:42;15.80;90.30
37285;DHT22;23172;53.550;9.964;2022-09-17T06:46:48;15.80;90.20
37285;DHT22;23172;53.550;9.964;2022-09-17T06:51:51;16.10;88.10
37285;DHT22;23172;53.550;9.964;2022-09-17T06:56:53;16.30;86.10
37285;DHT22;23172;53.550;9.964;2022-09-17T07:01:55;16.40;85.00
37285;DHT22;23172;53.550;9.964;2022-09-17T07:06:58;16.30;84.20
37285;DHT22;23172;53.550;9.964;2022-09-17T07:12:00;16.20;84.30
37285;DHT22;23172;53.550;9.964;2022-09-17T07:17:02;16.20;84.00
37285;DHT22;23172;53.550;9.964;2022-09-17T07:22:05;16.50;83.50
37285;DHT22;23172;53.550;9.964;2022-09-17T07:27:07;16.70;81.30
37285;DHT22;23172;53.550;9.964;2022-09-17T07:32:09;17.00;79.70
37285;DHT22;23172;53.550;9.964;2022-09-17T07:37:12;17.10;79.30
37285;DHT22;23172;53.550;9.964;2022-09-17T07:42:14;17.50;77.70
37285;DHT22;23172;53.550;9.964;2022-09-17T07:47:16;17.70;75.80
37285;DHT22;23172;53.550;9.964;2022-09-17T07:52:19;16.90;78.90
37285;DHT22;23172;53.550;9.964;2022-09-17T07:57:20;16.70;80.00
37285;DHT22;23172;53.550;9.964;2022-09-17T08:02:22;16.70;81.10
37285;DHT22;23172;53.550;9.964;2022-09-17T08:07:25;16.60;81.20
37285;DHT22;23172;53.550;9.964;2022-09-17T08:12:27;16.60;81.10
37285;DHT22;23172;53.550;9.964;2022-09-17T08:17:29;16.60;81.20
37285;DHT22;23172;53.550;9.964;2022-09-17T08:22:32;16.60;81.20
37285;DHT22;23172;53.550;9.964;2022-09-17T08:27:34;16.60;81.70
37285;DHT22;23172;53.550;9.964;2022-09-17T08:32:38;16.70;82.10
37285;DHT22;23172;53.550;9.964;2022-09-17T08:37:41;16.60;81.90
37285;DHT22;23172;53.550;9.964;2022-09-17T08:42:50;16.70;82.60
37285;DHT22;23172;53.550;9.964;2022-09-17T08:47:58;17.20;81.00
37285;DHT22;23172;53.550;9.964;2022-09-17T08:53:17;17.10;80.30
37285;DHT22;23172;53.550;9.964;2022-09-17T08:58:50;17.10;79.80
37285;DHT22;23172;53.550;9.964;2022-09-17T09:04:11;17.00;79.50
37285;DHT22;23172;53.550;9.964;2022-09-17T09:09:22;17.30;78.90
37285;DHT22;23172;53.550;9.964;2022-09-17T09:14:28;18.10;72.90
37285;DHT22;23172;53.550;9.964;2022-09-17T09:19:40;17.90;73.80
37285;DHT22;23172;53.550;9.964;2022-09-17T09:24:51;17.40;73.70
37285;DHT22;23172;53.550;9.964;2022-09-17T09:30:03;17.10;75.50
37285;DHT22;23172;53.550;9.964;2022-09-17T09:35:16;16.90;75.90
37285;DHT22;23172;53.550;9.964;2022-09-17T09:40:26;17.10;74.90
37285;DHT22;23172;53.550;9.964;2022-09-17T09:45:40;17.00;74.40
37285;DHT22;23172;53.550;9.964;2022-09-17T09:50:49;17.40;74.00
37285;DHT22;23172;53.550;9.964;2022-09-17T09:56:05;18.20;71.30
37285;DHT22;23172;53.550;9.964;2022-09-17T10:01:12;18.40;69.60
37285;DHT22;23172;53.550;9.964;2022-09-17T10:06:15;18.60;68.60
37285;DHT22;23172;53.550;9.964;2022-09-17T10:11:21;18.00;68.00
37285;DHT22;23172;53.550;9.964;2022-09-17T10:16:24;17.60;68.40
37285;DHT22;23172;53.550;9.964;2022-09-17T10:26:31;17.30;69.80
37285;DHT22;23172;53.550;9.964;2022-09-17T10:31:45;17.30;69.90
37285;DHT22;23172;53.550;9.964;2022-09-17T10:36:47;17.20;71.10
37285;DHT22;23172;53.550;9.964;2022-09-17T10:41:55;17.30;70.90
37285;DHT22;23172;53.550;9.964;2022-09-17T10:47:12;17.40;70.40
37285;DHT22;23172;53.550;9.964;2022-09-17T10:52:22;17.00;70.90
37285;DHT22;23172;53.550;9.964;2022-09-17T10:57:37;17.20;71.10
37285;DHT22;23172;53.550;9.964;2022-09-17T11:03:13;17.20;71.10
37285;DHT22;23172;53.550;9.964;2022-09-17T11:08:22;17.00;72.50
37285;DHT22;23172;53.550;9.964;2022-09-17T11:13:33;17.00;72.70
37285;DHT22;23172;53.550;9.964;2022-09-17T11:18:39;16.80;73.10
37285;DHT22;23172;53.550;9.964;2022-09-17T11:23:59;16.80;73.20
37285;DHT22;23172;53.550;9.964;2022-09-17T11:29:25;16.90;73.30
37285;DHT22;23172;53.550;9.964;2022-09-17T11:34:34;16.70;73.60
37285;DHT22;23172;53.550;9.964;2022-09-17T11:39:43;16.60;73.80
37285;DHT22;23172;53.550;9.964;2022-09-17T11:44:51;16.50;74.50
37285;DHT22;23172;53.550;9.964;2022-09-17T11:49:59;16.60;74.80
37285;DHT22;23172;53.550;9.964;2022-09-17T11:55:10;16.70;74.40
37285;DHT22;23172;53.550;9.964;2022-09-17T12:00:19;16.70;75.50
37285;DHT22;23172;53.550;9.964;2022-09-17T12:05:25;16.50;76.10
37285;DHT22;23172;53.550;9.964;2022-09-17T12:10:41;16.60;76.80
37285;DHT22;23172;53.550;9.964;2022-09-17T12:15:49;16.70;76.70
37285;DHT22;23172;53.550;9.964;2022-09-17T12:20:54;16.70;76.90
37285;DHT22;23172;53.550;9.964;2022-09-17T12:26:08;16.80;77.70
37285;DHT22;23172;53.550;9.964;2022-09-17T12:31:20;17.00;77.10
37285;DHT22;23172;53.550;9.964;2022-09-17T12:36:36;17.00;77.10
37285;DHT22;23172;53.550;9.964;2022-09-17T12:41:47;17.20;77.40
37285;DHT22;23172;53.550;9.964;2022-09-17T12:47:06;17.00;77.70
37285;DHT22;23172;53.550;9.964;2022-09-17T12:52:14;16.90;78.40
37285;DHT22;23172;53.550;9.964;2022-09-17T12:57:27;16.90;78.80
37285;DHT22;23172;53.550;9.964;2022-09-17T13:02:37;16.90;79.30
37285;DHT22;23172;53.550;9.964;2022-09-17T13:08:05;16.80;79.80
37285;DHT22;23172;53.550;9.964;2022-09-17T13:13:24;16.90;80.40
37285;DHT22;23172;53.550;9.964;2022-09-17T13:18:35;16.90;80.60
37285;DHT22;23172;53.550;9.964;2022-09-17T13:23:41;16.70;81.30
37285;DHT22;23172;53.550;9.964;2022-09-17T13:28:45;16.50;83.80
37285;DHT22;23172;53.550;9.964;2022-09-17T13:33:54;16.10;87.60
37285;DHT22;23172;53.550;9.964;2022-09-17T13:38:56;15.90;90.10
37285;DHT22;23172;53.550;9.964;2022-09-17T13:43:58;15.90;90.70
37285;DHT22;23172;53.550;9.964;2022-09-17T13:49:04;15.80;91.50
37285;DHT22;23172;53.550;9.964;2022-09-17T13:54:12;16.00;92.20
37285;DHT22;23172;53.550;9.964;2022-09-17T13:59:18;16.90;92.50
37285;DHT22;23172;53.550;9.964;2022-09-17T14:04:45;16.50;93.00
37285;DHT22;23172;53.550;9.964;2022-09-17T14:09:52;17.20;92.50
37285;DHT22;23172;53.550;9.964;2022-09-17T14:14:54;16.80;92.90
37285;DHT22;23172;53.550;9.964;2022-09-17T14:19:57;17.50;91.40
37285;DHT22;23172;53.550;9.964;2022-09-17T14:25:03;16.90;91.80
37285;DHT22;23172;53.550;9.964;2022-09-17T14:30:17;16.60;92.50
37285;DHT22;23172;53.550;9.964;2022-09-17T14:35:25;17.40;91.70
37285;DHT22;23172;53.550;9.964;2022-09-17T14:40:31;17.10;92.10
37285;DHT22;23172;53.550;9.964;2022-09-17T14:45:40;16.90;92.00
37285;DHT22;23172;53.550;9.964;2022-09-17T14:50:43;17.40;88.60
37285;DHT22;23172;53.550;9.964;2022-09-17T14:55:46;16.50;90.30
37285;DHT22;23172;53.550;9.964;2022-09-17T15:00:50;16.00;91.00
37285;DHT22;23172;53.550;9.964;2022-09-17T15:05:54;15.80;91.70
37285;DHT22;23172;53.550;9.964;2022-09-17T15:10:58;15.60;92.00
37285;DHT22;23172;53.550;9.964;2022-09-17T15:16:02;16.30;91.00
37285;DHT22;23172;53.550;9.964;2022-09-17T15:21:17;15.80;91.70
37285;DHT22;23172;53.550;9.964;2022-09-17T15:26:24;15.60;92.10
37285;DHT22;23172;53.550;9.964;2022-09-17T15:31:28;16.30;91.00
37285;DHT22;23172;53.550;9.964;2022-09-17T15:36:32;15.80;91.60
37285;DHT22;23172;53.550;9.964;2022-09-17T15:41:34;16.30;90.70
37285;DHT22;23172;53.550;9.964;2022-09-17T15:46:36;16.60;89.70
37285;DHT22;23172;53.550;9.964;2022-09-17T15:51:39;16.70;89.70
37285;DHT22;23172;53.550;9.964;2022-09-17T15:56:41;16.80;88.10
37285;DHT22;23172;53.550;9.964;2022-09-17T16:01:53;16.00;90.20
37285;DHT22;23172;53.550;9.964;2022-09-17T16:07:00;16.50;88.80
37285;DHT22;23172;53.550;9.964;2022-09-17T16:12:02;16.70;87.10
37285;DHT22;23172;53.550;9.964;2022-09-17T16:17:41;16.00;89.50
37285;DHT22;23172;53.550;9.964;2022-09-17T16:22:45;16.40;88.20
37285;DHT22;23172;53.550;9.964;2022-09-17T16:27:50;16.60;87.20
37285;DHT22;23172;53.550;9.964;2022-09-17T16:32:52;15.90;90.00
37285;DHT22;23172;53.550;9.964;2022-09-17T16:37:56;16.40;89.10
37285;DHT22;23172;53.550;9.964;2022-09-17T16:42:59;16.60;88.50
37285;DHT22;23172;53.550;9.964;2022-09-17T16:48:02;16.70;88.50
37285;DHT22;23172;53.550;9.964;2022-09-17T16:53:05;16.70;88.30
37285;DHT22;23172;53.550;9.964;2022-09-17T16:58:07;16.80;88.00
37285;DHT22;23172;53.550;9.964;2022-09-17T17:03:11;16.80;87.80
37285;DHT22;23172;53.550;9.964;2022-09-17T17:08:14;16.00;90.30
37285;DHT22;23172;53.550;9.964;2022-09-17T17:13:16;16.40;89.70
37285;DHT22;23172;53.550;9.964;2022-09-17T17:18:19;16.60;88.80
37285;DHT22;23172;53.550;9.964;2022-09-17T17:23:22;16.60;87.80
37285;DHT22;23172;53.550;9.964;2022-09-17T17:28:24;15.90;90.20
37285;DHT22;23172;53.550;9.964;2022-09-17T17:33:25;16.30;89.40
37285;DHT22;23172;53.550;9.964;2022-09-17T17:38:29;16.40;88.30
37285;DHT22;23172;53.550;9.964;2022-09-17T17:43:30;16.50;88.80
37285;DHT22;23172;53.550;9.964;2022-09-17T17:48:32;16.50;87.50
37285;DHT22;23172;53.550;9.964;2022-09-17T17:53:36;16.50;87.80
37285;DHT22;23172;53.550;9.964;2022-09-17T17:58:39;16.50;87.20
37285;DHT22;23172;53.550;9.964;2022-09-17T18:03:41;16.50;86.90
37285;DHT22;23172;53.550;9.964;2022-09-17T18:08:44;15.60;89.70
37285;DHT22;23172;53.550;9.964;2022-09-17T18:13:49;16.10;88.90
37285;DHT22;23172;53.550;9.964;2022-09-17T18:18:53;16.30;88.60
37285;DHT22;23172;53.550;9.964;2022-09-17T18:23:56;16.40;87.80
37285;DHT22;23172;53.550;9.964;2022-09-17T18:28:58;16.40;87.30
37285;DHT22;23172;53.550;9.964;2022-09-17T18:34:01;16.50;87.20
37285;DHT22;23172;53.550;9.964;2022-09-17T18:39:06;16.50;87.20
37285;DHT22;23172;53.550;9.964;2022-09-17T18:44:09;16.50;87.20
37285;DHT22;23172;53.550;9.964;2022-09-17T18:49:11;16.50;86.70
37285;DHT22;23172;53.550;9.964;2022-09-17T18:54:14;16.50;87.20
37285;DHT22;23172;53.550;9.964;2022-09-17T18:59:16;15.70;89.60
37285;DHT22;23172;53.550;9.964;2022-09-17T19:04:17;16.20;89.50
37285;DHT22;23172;53.550;9.964;2022-09-17T19:09:21;16.30;89.30
37285;DHT22;23172;53.550;9.964;2022-09-17T19:14:23;16.40;89.10
37285;DHT22;23172;53.550;9.964;2022-09-17T19:19:24;16.50;88.90
37285;DHT22;23172;53.550;9.964;2022-09-17T19:24:27;16.50;88.70
37285;DHT22;23172;53.550;9.964;2022-09-17T19:29:29;16.60;88.50
37285;DHT22;23172;53.550;9.964;2022-09-17T19:34:30;15.70;90.30
37285;DHT22;23172;53.550;9.964;2022-09-17T19:39:33;15.30;91.00
37285;DHT22;23172;53.550;9.964;2022-09-17T19:44:35;15.00;91.60
37285;DHT22;23172;53.550;9.964;2022-09-17T19:49:37;14.80;91.90
37285;DHT22;23172;53.550;9.964;2022-09-17T19:54:40;14.60;92.10
37285;DHT22;23172;53.550;9.964;2022-09-17T19:59:42;14.50;92.30
37285;DHT22;23172;53.550;9.964;2022-09-17T20:04:43;14.40;92.50
37285;DHT22;23172;53.550;9.964;2022-09-17T20:09:47;14.30;92.60
37285;DHT22;23172;53.550;9.964;2022-09-17T20:14:49;14.30;92.70
37285;DHT22;23172;53.550;9.964;2022-09-17T20:19:51;14.30;92.80
37285;DHT22;23172;53.550;9.964;2022-09-17T20:24:54;14.20;92.70
37285;DHT22;23172;53.550;9.964;2022-09-17T20:29:55;14.20;92.80
37285;DHT22;23172;53.550;9.964;2022-09-17T20:34:57;14.10;92.80
37285;DHT22;23172;53.550;9.964;2022-09-17T20:40:00;14.10;92.90
37285;DHT22;23172;53.550;9.964;2022-09-17T20:45:02;14.10;92.90
37285;DHT22;23172;53.550;9.964;2022-09-17T20:50:04;14.10;93.00
37285;DHT22;23172;53.550;9.964;2022-09-17T20:55:07;14.10;93.00
37285;DHT22;23172;53.550;9.964;2022-09-17T21:00:09;14.10;93.10
37285;DHT22;23172;53.550;9.964;2022-09-17T21:05:18;14.10;92.70
37285;DHT22;23172;53.550;9.964;2022-09-17T21:10:21;14.10;92.80
37285;DHT22;23172;53.550;9.964;2022-09-17T21:15:23;14.10;92.70
37285;DHT22;23172;53.550;9.964;2022-09-17T21:20:24;14.20;92.50
37285;DHT22;23172;53.550;9.964;2022-09-17T21:25:27;14.20;92.50
37285;DHT22;23172;53.550;9.964;2022-09-17T21:30:29;14.20;92.60
37285;DHT22;23172;53.550;9.964;2022-09-17T21:35:31;14.10;92.60
37285;DHT22;23172;53.550;9.964;2022-09-17T21:40:34;14.20;92.60
37285;DHT22;23172;53.550;9.964;2022-09-17T21:45:36;14.20;92.50
37285;DHT22;23172;53.550;9.964;2022-09-17T21:50:37;14.20;92.40
37285;DHT22;23172;53.550;9.964;2022-09-17T21:55:40;14.20;92.30
37285;DHT22;23172;53.550;9.964;2022-09-17T22:00:42;14.20;92.30
37285;DHT22;23172;53.550;9.964;2022-09-17T22:05:44;14.20;92.20
37285;DHT22;23172;53.550;9.964;2022-09-17T22:10:47;14.20;92.20
37285;DHT22;23172;53.550;9.964;2022-09-17T22:15:54;14.20;92.00
37285;DHT22;23172;53.550;9.964;2022-09-17T22:20:55;14.10;92.00
37285;DHT22;23172;53.550;9.964;2022-09-17T22:26:03;14.10;91.80
37285;DHT22;23172;53.550;9.964;2022-09-17T22:31:06;14.20;91.90
37285;DHT22;23172;53.550;9.964;2022-09-17T22:36:08;14.10;91.80
37285;DHT22;23172;53.550;9.964;2022-09-17T22:41:13;14.20;91.80
37285;DHT22;23172;53.550;9.964;2022-09-17T22:46:16;14.10;91.80
37285;DHT22;23172;53.550;9.964;2022-09-17T22:51:17;14.10;91.80
37285;DHT22;23172;53.550;9.964;2022-09-17T22:56:21;14.00;91.70
37285;DHT22;23172;53.550;9.964;2022-09-17T23:01:24;14.00;91.90
37285;DHT22;23172;53.550;9.964;2022-09-17T23:06:28;13.90;91.90
37285;DHT22;23172;53.550;9.964;2022-09-17T23:11:33;13.90;91.90
37285;DHT22;23172;53.550;9.964;2022-09-17T23:16:37;13.90;91.80
37285;DHT22;23172;53.550;9.964;2022-09-17T23:21:39;13.90;91.70
37285;DHT22;23172;53.550;9.964;2022-09-17T23:26:42;13.90;91.60
37285;DHT22;23172;53.550;9.964;2022-09-17T23:31:44;14.00;91.50
37285;DHT22;23172;53.550;9.964;2022-09-17T23:36:46;14.00;91.50
37285;DHT22;23172;53.550;9.964;2022-09-17T23:41:49;13.90;91.50
37285;DHT22;23172;53.550;9.964;2022-09-17T23:46:51;13.80;91.70
37285;DHT22;23172;53.550;9.964;2022-09-17T23:51:52;13.80;92.00
37285;DHT22;23172;53.550;9.964;2022-09-17T23:56:56;13.80;92.20
